sensor_id;sensor_type;location;lat;lon;timestamp;P1;durP1;ratioP1;P2;durP2;ratioP2
15958;SDS011;8078;47.822;9.402;2023-03-01T00:00:53;36.63;;;18.90;;
15958;SDS011;8078;47.822;9.402;2023-03-01T00:03:18;39.43;;;19.60;;
15958;SDS011;8078;47.822;9.402;2023-03-01T00:05:44;39.83;;;18.77;;
15958;SDS011;8078;47.822;9.402;2023-03-01T00:08:11;33.30;;;18.60;;
15958;SDS011;8078;47.822;9.402;2023-03-01T00:10:36;33.43;;;19.03;;
15958;SDS011;8078;47.822;9.402;2023-03-01T00:13:02;38.03;;;18.87;;
15958;SDS011;8078;47.822;9.402;2023-03-01T00:15:30;36.73;;;20.13;;
15958;SDS011;8078;47.822;9.402;2023-03-01T00:17:56;35.17;;;19.03;;
15958;SDS011;8078;47.822;9.402;2023-03-01T00:20:21;38.27;;;18.63;;
15958;SDS011;8078;47.822;9.402;2023-03-01T00:22:47;36.83;;;19.37;;
15958;SDS011;8078;47.822;9.402;2023-03-01T00:25:15;37.50;;;19.40;;
15958;SDS011;8078;47.822;9.402;2023-03-01T00:27:41;39.00;;;20.90;;
15958;SDS011;8078;47.822;9.402;2023-03-01T00:30:07;37.27;;;19.20;;
15958;SDS011;8078;47.822;9.402;2023-03-01T00:32:33;36.67;;;19.07;;
15958;SDS011;8078;47.822;9.402;2023-03-01T00:34:58;37.10;;;19.13;;
15958;SDS011;8078;47.822;9.402;2023-03-01T00:37:24;38.23;;;18.87;;
15958;SDS011;8078;47.822;9.402;2023-03-01T00:39:50;38.70;;;19.80;;
15958;SDS011;8078;47.822;9.402;2023-03-01T00:42:16;38.50;;;20.57;;
15958;SDS011;8078;47.822;9.402;2023-03-01T00:44:41;37.93;;;20.00;;
15958;SDS011;8078;47.822;9.402;2023-03-01T00:47:08;36.83;;;19.90;;
15958;SDS011;8078;47.822;9.402;2023-03-01T00:49:33;33.40;;;18.93;;
15958;SDS011;8078;47.822;9.402;2023-03-01T00:52:00;33.00;;;18.63;;
15958;SDS011;8078;47.822;9.402;2023-03-01T00:54:25;35.50;;;19.20;;
15958;SDS011;8078;47.822;9.402;2023-03-01T00:56:51;37.30;;;20.17;;
15958;SDS011;8078;47.822;9.402;2023-03-01T00:59:16;35.23;;;18.60;;
15958;SDS011;8078;47.822;9.402;2023-03-01T01:01:42;35.83;;;19.67;;
15958;SDS011;8078;47.822;9.402;2023-03-01T01:04:09;36.80;;;19.53;;
15958;SDS011;8078;47.822;9.402;2023-03-01T01:06:43;36.47;;;19.93;;
15958;SDS011;8078;47.822;9.402;2023-03-01T01:09:11;40.40;;;20.03;;
15958;SDS011;8078;47.822;9.402;2023-03-01T01:11:42;42.67;;;20.93;;
15958;SDS011;8078;47.822;9.402;2023-03-01T01:14:11;40.03;;;20.57;;
15958;SDS011;8078;47.822;9.402;2023-03-01T01:16:37;42.90;;;21.13;;
15958;SDS011;8078;47.822;9.402;2023-03-01T01:19:03;35.60;;;19.20;;
15958;SDS011;8078;47.822;9.402;2023-03-01T01:21:29;40.13;;;19.67;;
15958;SDS011;8078;47.822;9.402;2023-03-01T01:23:55;37.40;;;19.70;;
15958;SDS011;8078;47.822;9.402;2023-03-01T01:26:22;38.97;;;19.97;;
15958;SDS011;8078;47.822;9.402;2023-03-01T01:28:50;40.63;;;20.20;;
15958;SDS011;8078;47.822;9.402;2023-03-01T01:31:16;36.97;;;19.33;;
15958;SDS011;8078;47.822;9.402;2023-03-01T01:33:42;36.90;;;19.50;;
15958;SDS011;8078;47.822;9.402;2023-03-01T01:36:08;37.47;;;20.03;;
15958;SDS011;8078;47.822;9.402;2023-03-01T01:38:35;38.50;;;19.37;;
15958;SDS011;8078;47.822;9.402;2023-03-01T01:41:01;33.47;;;18.80;;
15958;SDS011;8078;47.822;9.402;2023-03-01T01:43:33;39.13;;;20.20;;
15958;SDS011;8078;47.822;9.402;2023-03-01T01:46:04;35.97;;;19.70;;
15958;SDS011;8078;47.822;9.402;2023-03-01T01:48:39;36.43;;;19.70;;
15958;SDS011;8078;47.822;9.402;2023-03-01T01:51:13;36.40;;;18.87;;
15958;SDS011;8078;47.822;9.402;2023-03-01T01:53:42;37.23;;;20.47;;
15958;SDS011;8078;47.822;9.402;2023-03-01T01:56:11;38.83;;;20.20;;
15958;SDS011;8078;47.822;9.402;2023-03-01T01:58:40;35.83;;;19.27;;
15958;SDS011;8078;47.822;9.402;2023-03-01T02:01:07;40.03;;;20.03;;
15958;SDS011;8078;47.822;9.402;2023-03-01T02:03:33;35.70;;;19.80;;
15958;SDS011;8078;47.822;9.402;2023-03-01T02:06:06;39.53;;;20.00;;
15958;SDS011;8078;47.822;9.402;2023-03-01T02:08:36;35.13;;;19.13;;
15958;SDS011;8078;47.822;9.402;2023-03-01T02:11:05;35.97;;;19.07;;
15958;SDS011;8078;47.822;9.402;2023-03-01T02:13:31;38.57;;;19.47;;
15958;SDS011;8078;47.822;9.402;2023-03-01T02:15:59;32.67;;;18.20;;
15958;SDS011;8078;47.822;9.402;2023-03-01T02:18:27;40.83;;;20.37;;
15958;SDS011;8078;47.822;9.402;2023-03-01T02:23:30;44.13;;;19.63;;
15958;SDS011;8078;47.822;9.402;2023-03-01T02:26:16;37.70;;;20.30;;
15958;SDS011;8078;47.822;9.402;2023-03-01T02:29:04;36.60;;;18.17;;
15958;SDS011;8078;47.822;9.402;2023-03-01T02:31:30;36.53;;;20.27;;
15958;SDS011;8078;47.822;9.402;2023-03-01T02:34:20;38.37;;;19.53;;
15958;SDS011;8078;47.822;9.402;2023-03-01T02:36:48;37.17;;;18.73;;
15958;SDS011;8078;47.822;9.402;2023-03-01T02:39:18;38.57;;;19.13;;
15958;SDS011;8078;47.822;9.402;2023-03-01T02:41:50;37.40;;;19.67;;
15958;SDS011;8078;47.822;9.402;2023-03-01T02:44:18;36.77;;;18.80;;
15958;SDS011;8078;47.822;9.402;2023-03-01T02:46:46;38.30;;;19.13;;
15958;SDS011;8078;47.822;9.402;2023-03-01T02:49:21;35.83;;;18.33;;
15958;SDS011;8078;47.822;9.402;2023-03-01T02:54:33;38.53;;;20.13;;
15958;SDS011;8078;47.822;9.402;2023-03-01T02:57:07;40.20;;;19.90;;
15958;SDS011;8078;47.822;9.402;2023-03-01T02:59:34;36.03;;;19.50;;
15958;SDS011;8078;47.822;9.402;2023-03-01T03:02:04;38.80;;;20.33;;
15958;SDS011;8078;47.822;9.402;2023-03-01T03:04:31;38.97;;;20.33;;
15958;SDS011;8078;47.822;9.402;2023-03-01T03:06:56;37.70;;;19.77;;
15958;SDS011;8078;47.822;9.402;2023-03-01T03:09:22;40.60;;;20.93;;
15958;SDS011;8078;47.822;9.402;2023-03-01T03:11:48;39.87;;;21.00;;
15958;SDS011;8078;47.822;9.402;2023-03-01T03:14:15;40.60;;;20.93;;
15958;SDS011;8078;47.822;9.402;2023-03-01T03:16:45;39.00;;;20.57;;
15958;SDS011;8078;47.822;9.402;2023-03-01T03:19:17;41.40;;;20.83;;
15958;SDS011;8078;47.822;9.402;2023-03-01T03:21:43;39.90;;;20.07;;
15958;SDS011;8078;47.822;9.402;2023-03-01T03:24:08;39.20;;;20.63;;
15958;SDS011;8078;47.822;9.402;2023-03-01T03:26:34;43.10;;;21.10;;
15958;SDS011;8078;47.822;9.402;2023-03-01T03:29:00;40.57;;;20.47;;
15958;SDS011;8078;47.822;9.402;2023-03-01T03:31:26;40.20;;;20.13;;
15958;SDS011;8078;47.822;9.402;2023-03-01T03:33:51;39.47;;;20.50;;
15958;SDS011;8078;47.822;9.402;2023-03-01T03:36:21;43.83;;;20.90;;
15958;SDS011;8078;47.822;9.402;2023-03-01T03:38:48;41.97;;;22.60;;
15958;SDS011;8078;47.822;9.402;2023-03-01T03:41:14;42.70;;;21.70;;
15958;SDS011;8078;47.822;9.402;2023-03-01T03:43:40;41.57;;;21.20;;
15958;SDS011;8078;47.822;9.402;2023-03-01T03:46:07;39.57;;;20.97;;
15958;SDS011;8078;47.822;9.402;2023-03-01T03:48:41;44.03;;;22.57;;
15958;SDS011;8078;47.822;9.402;2023-03-01T03:51:12;39.23;;;20.60;;
15958;SDS011;8078;47.822;9.402;2023-03-01T03:53:39;40.23;;;21.17;;
15958;SDS011;8078;47.822;9.402;2023-03-01T03:56:05;42.63;;;22.40;;
15958;SDS011;8078;47.822;9.402;2023-03-01T03:58:31;44.63;;;21.40;;
15958;SDS011;8078;47.822;9.402;2023-03-01T04:00:57;41.77;;;21.53;;
15958;SDS011;8078;47.822;9.402;2023-03-01T04:03:23;40.67;;;21.60;;
15958;SDS011;8078;47.822;9.402;2023-03-01T04:05:50;40.73;;;22.53;;
15958;SDS011;8078;47.822;9.402;2023-03-01T04:08:16;44.57;;;22.37;;
15958;SDS011;8078;47.822;9.402;2023-03-01T04:10:45;40.37;;;21.07;;
15958;SDS011;8078;47.822;9.402;2023-03-01T04:13:14;43.57;;;22.60;;
15958;SDS011;8078;47.822;9.402;2023-03-01T04:15:41;44.30;;;20.83;;
15958;SDS011;8078;47.822;9.402;2023-03-01T04:18:14;44.40;;;20.70;;
15958;SDS011;8078;47.822;9.402;2023-03-01T04:20:41;44.57;;;21.10;;
15958;SDS011;8078;47.822;9.402;2023-03-01T04:23:17;44.27;;;21.53;;
15958;SDS011;8078;47.822;9.402;2023-03-01T04:28:23;49.57;;;24.03;;
15958;SDS011;8078;47.822;9.402;2023-03-01T04:30:53;46.40;;;23.20;;
15958;SDS011;8078;47.822;9.402;2023-03-01T04:33:20;39.90;;;21.00;;
15958;SDS011;8078;47.822;9.402;2023-03-01T04:35:48;48.80;;;23.10;;
15958;SDS011;8078;47.822;9.402;2023-03-01T04:38:14;46.60;;;22.73;;
15958;SDS011;8078;47.822;9.402;2023-03-01T04:40:41;49.00;;;22.43;;
15958;SDS011;8078;47.822;9.402;2023-03-01T04:43:08;44.60;;;22.33;;
15958;SDS011;8078;47.822;9.402;2023-03-01T04:45:34;40.30;;;21.67;;
15958;SDS011;8078;47.822;9.402;2023-03-01T04:48:01;45.70;;;23.60;;
15958;SDS011;8078;47.822;9.402;2023-03-01T04:50:27;44.30;;;21.80;;
15958;SDS011;8078;47.822;9.402;2023-03-01T04:52:53;47.33;;;22.40;;
15958;SDS011;8078;47.822;9.402;2023-03-01T04:55:18;50.70;;;24.33;;
15958;SDS011;8078;47.822;9.402;2023-03-01T04:57:44;48.47;;;23.87;;
15958;SDS011;8078;47.822;9.402;2023-03-01T05:00:10;43.07;;;22.27;;
15958;SDS011;8078;47.822;9.402;2023-03-01T05:02:47;46.20;;;23.40;;
15958;SDS011;8078;47.822;9.402;2023-03-01T05:05:25;48.07;;;22.97;;
15958;SDS011;8078;47.822;9.402;2023-03-01T05:07:53;47.30;;;22.70;;
15958;SDS011;8078;47.822;9.402;2023-03-01T05:10:20;47.90;;;22.47;;
15958;SDS011;8078;47.822;9.402;2023-03-01T05:12:45;47.37;;;22.43;;
15958;SDS011;8078;47.822;9.402;2023-03-01T05:15:11;45.13;;;22.30;;
15958;SDS011;8078;47.822;9.402;2023-03-01T05:17:37;48.83;;;23.43;;
15958;SDS011;8078;47.822;9.402;2023-03-01T05:20:03;53.33;;;24.37;;
15958;SDS011;8078;47.822;9.402;2023-03-01T05:22:33;45.37;;;22.50;;
15958;SDS011;8078;47.822;9.402;2023-03-01T05:24:59;50.37;;;24.43;;
15958;SDS011;8078;47.822;9.402;2023-03-01T05:27:25;45.43;;;22.90;;
15958;SDS011;8078;47.822;9.402;2023-03-01T05:29:50;46.30;;;23.30;;
15958;SDS011;8078;47.822;9.402;2023-03-01T05:32:16;48.70;;;23.40;;
15958;SDS011;8078;47.822;9.402;2023-03-01T05:34:41;45.63;;;24.07;;
15958;SDS011;8078;47.822;9.402;2023-03-01T05:37:07;47.07;;;23.20;;
15958;SDS011;8078;47.822;9.402;2023-03-01T05:39:33;43.93;;;21.50;;
15958;SDS011;8078;47.822;9.402;2023-03-01T05:42:00;47.70;;;23.07;;
15958;SDS011;8078;47.822;9.402;2023-03-01T05:44:26;53.40;;;23.90;;
15958;SDS011;8078;47.822;9.402;2023-03-01T05:46:53;39.80;;;21.03;;
15958;SDS011;8078;47.822;9.402;2023-03-01T05:49:19;41.90;;;22.77;;
15958;SDS011;8078;47.822;9.402;2023-03-01T05:51:48;45.17;;;21.97;;
15958;SDS011;8078;47.822;9.402;2023-03-01T05:54:15;44.93;;;23.63;;
15958;SDS011;8078;47.822;9.402;2023-03-01T05:56:41;47.73;;;23.20;;
15958;SDS011;8078;47.822;9.402;2023-03-01T05:59:07;42.83;;;23.03;;
15958;SDS011;8078;47.822;9.402;2023-03-01T06:01:33;47.70;;;22.97;;
15958;SDS011;8078;47.822;9.402;2023-03-01T06:03:59;49.90;;;23.30;;
15958;SDS011;8078;47.822;9.402;2023-03-01T06:06:25;47.30;;;23.17;;
15958;SDS011;8078;47.822;9.402;2023-03-01T06:08:51;47.47;;;23.83;;
15958;SDS011;8078;47.822;9.402;2023-03-01T06:11:17;46.43;;;23.23;;
15958;SDS011;8078;47.822;9.402;2023-03-01T06:13:43;48.77;;;23.17;;
15958;SDS011;8078;47.822;9.402;2023-03-01T06:16:09;47.93;;;23.77;;
15958;SDS011;8078;47.822;9.402;2023-03-01T06:18:36;50.63;;;24.70;;
15958;SDS011;8078;47.822;9.402;2023-03-01T06:21:02;49.17;;;24.97;;
15958;SDS011;8078;47.822;9.402;2023-03-01T06:23:28;49.23;;;24.47;;
15958;SDS011;8078;47.822;9.402;2023-03-01T06:25:53;47.00;;;22.70;;
15958;SDS011;8078;47.822;9.402;2023-03-01T06:28:19;45.23;;;24.20;;
15958;SDS011;8078;47.822;9.402;2023-03-01T06:30:45;45.87;;;23.47;;
15958;SDS011;8078;47.822;9.402;2023-03-01T06:33:11;46.10;;;23.80;;
15958;SDS011;8078;47.822;9.402;2023-03-01T06:35:36;44.83;;;23.87;;
15958;SDS011;8078;47.822;9.402;2023-03-01T06:38:03;47.53;;;23.83;;
15958;SDS011;8078;47.822;9.402;2023-03-01T06:40:29;51.87;;;24.03;;
15958;SDS011;8078;47.822;9.402;2023-03-01T06:42:56;49.60;;;24.73;;
15958;SDS011;8078;47.822;9.402;2023-03-01T06:45:22;47.60;;;23.00;;
15958;SDS011;8078;47.822;9.402;2023-03-01T06:47:47;49.37;;;24.60;;
15958;SDS011;8078;47.822;9.402;2023-03-01T06:50:13;47.57;;;24.07;;
15958;SDS011;8078;47.822;9.402;2023-03-01T06:52:40;51.13;;;25.00;;
15958;SDS011;8078;47.822;9.402;2023-03-01T06:55:06;52.73;;;24.53;;
15958;SDS011;8078;47.822;9.402;2023-03-01T06:57:32;52.13;;;25.17;;
15958;SDS011;8078;47.822;9.402;2023-03-01T06:59:57;52.93;;;24.03;;
15958;SDS011;8078;47.822;9.402;2023-03-01T07:02:23;48.53;;;24.77;;
15958;SDS011;8078;47.822;9.402;2023-03-01T07:04:49;46.67;;;23.73;;
15958;SDS011;8078;47.822;9.402;2023-03-01T07:07:15;49.67;;;24.40;;
15958;SDS011;8078;47.822;9.402;2023-03-01T07:09:42;47.53;;;23.60;;
15958;SDS011;8078;47.822;9.402;2023-03-01T07:12:12;48.97;;;23.90;;
15958;SDS011;8078;47.822;9.402;2023-03-01T07:14:37;53.57;;;24.17;;
15958;SDS011;8078;47.822;9.402;2023-03-01T07:17:03;47.03;;;22.37;;
15958;SDS011;8078;47.822;9.402;2023-03-01T07:19:28;47.77;;;24.63;;
15958;SDS011;8078;47.822;9.402;2023-03-01T07:21:54;45.07;;;22.77;;
15958;SDS011;8078;47.822;9.402;2023-03-01T07:24:20;42.87;;;22.53;;
15958;SDS011;8078;47.822;9.402;2023-03-01T07:26:50;42.73;;;24.00;;
15958;SDS011;8078;47.822;9.402;2023-03-01T07:29:16;50.63;;;24.33;;
15958;SDS011;8078;47.822;9.402;2023-03-01T07:31:42;49.13;;;22.83;;
15958;SDS011;8078;47.822;9.402;2023-03-01T07:34:08;49.93;;;24.47;;
15958;SDS011;8078;47.822;9.402;2023-03-01T07:36:35;45.03;;;23.27;;
15958;SDS011;8078;47.822;9.402;2023-03-01T07:39:01;44.60;;;22.00;;
15958;SDS011;8078;47.822;9.402;2023-03-01T07:41:28;45.90;;;23.80;;
15958;SDS011;8078;47.822;9.402;2023-03-01T07:43:53;50.03;;;23.13;;
15958;SDS011;8078;47.822;9.402;2023-03-01T07:46:19;45.20;;;22.83;;
15958;SDS011;8078;47.822;9.402;2023-03-01T07:48:45;46.83;;;23.43;;
15958;SDS011;8078;47.822;9.402;2023-03-01T07:51:10;48.10;;;23.20;;
15958;SDS011;8078;47.822;9.402;2023-03-01T07:53:36;45.60;;;24.23;;
15958;SDS011;8078;47.822;9.402;2023-03-01T07:56:06;45.40;;;22.67;;
15958;SDS011;8078;47.822;9.402;2023-03-01T07:58:41;41.03;;;21.80;;
15958;SDS011;8078;47.822;9.402;2023-03-01T08:01:08;43.57;;;22.37;;
15958;SDS011;8078;47.822;9.402;2023-03-01T08:03:39;48.37;;;23.27;;
15958;SDS011;8078;47.822;9.402;2023-03-01T08:06:06;43.20;;;23.27;;
15958;SDS011;8078;47.822;9.402;2023-03-01T08:08:33;40.70;;;21.57;;
15958;SDS011;8078;47.822;9.402;2023-03-01T08:11:00;40.43;;;21.80;;
15958;SDS011;8078;47.822;9.402;2023-03-01T08:13:28;40.20;;;23.30;;
15958;SDS011;8078;47.822;9.402;2023-03-01T08:15:54;41.40;;;21.40;;
15958;SDS011;8078;47.822;9.402;2023-03-01T08:18:20;47.20;;;24.00;;
15958;SDS011;8078;47.822;9.402;2023-03-01T08:20:46;45.90;;;22.30;;
15958;SDS011;8078;47.822;9.402;2023-03-01T08:23:12;43.30;;;21.63;;
15958;SDS011;8078;47.822;9.402;2023-03-01T08:25:38;40.07;;;20.50;;
15958;SDS011;8078;47.822;9.402;2023-03-01T08:28:04;39.47;;;21.23;;
15958;SDS011;8078;47.822;9.402;2023-03-01T08:30:30;38.37;;;22.60;;
15958;SDS011;8078;47.822;9.402;2023-03-01T08:32:56;41.30;;;22.43;;
15958;SDS011;8078;47.822;9.402;2023-03-01T08:35:22;39.57;;;22.17;;
15958;SDS011;8078;47.822;9.402;2023-03-01T08:37:48;35.87;;;20.80;;
15958;SDS011;8078;47.822;9.402;2023-03-01T08:40:14;44.20;;;22.83;;
15958;SDS011;8078;47.822;9.402;2023-03-01T08:42:40;42.23;;;21.30;;
15958;SDS011;8078;47.822;9.402;2023-03-01T08:45:07;43.07;;;21.87;;
15958;SDS011;8078;47.822;9.402;2023-03-01T08:47:34;39.77;;;20.97;;
15958;SDS011;8078;47.822;9.402;2023-03-01T08:50:00;43.23;;;21.53;;
15958;SDS011;8078;47.822;9.402;2023-03-01T08:52:25;39.53;;;19.97;;
15958;SDS011;8078;47.822;9.402;2023-03-01T08:54:51;39.10;;;21.27;;
15958;SDS011;8078;47.822;9.402;2023-03-01T08:57:17;40.13;;;21.53;;
15958;SDS011;8078;47.822;9.402;2023-03-01T08:59:43;42.97;;;21.50;;
15958;SDS011;8078;47.822;9.402;2023-03-01T09:02:13;38.83;;;20.70;;
15958;SDS011;8078;47.822;9.402;2023-03-01T09:04:40;47.27;;;22.70;;
15958;SDS011;8078;47.822;9.402;2023-03-01T09:07:06;40.33;;;20.83;;
15958;SDS011;8078;47.822;9.402;2023-03-01T09:09:32;39.37;;;20.53;;
15958;SDS011;8078;47.822;9.402;2023-03-01T09:11:58;39.90;;;20.97;;
15958;SDS011;8078;47.822;9.402;2023-03-01T09:14:24;35.70;;;20.30;;
15958;SDS011;8078;47.822;9.402;2023-03-01T09:16:49;38.70;;;20.40;;
15958;SDS011;8078;47.822;9.402;2023-03-01T09:19:15;43.03;;;21.07;;
15958;SDS011;8078;47.822;9.402;2023-03-01T09:21:40;37.97;;;19.77;;
15958;SDS011;8078;47.822;9.402;2023-03-01T09:24:13;37.73;;;21.07;;
15958;SDS011;8078;47.822;9.402;2023-03-01T09:26:39;38.13;;;19.63;;
15958;SDS011;8078;47.822;9.402;2023-03-01T09:29:05;39.93;;;21.30;;
15958;SDS011;8078;47.822;9.402;2023-03-01T09:31:31;36.77;;;20.67;;
15958;SDS011;8078;47.822;9.402;2023-03-01T09:33:56;38.40;;;20.50;;
15958;SDS011;8078;47.822;9.402;2023-03-01T09:36:23;39.90;;;20.83;;
15958;SDS011;8078;47.822;9.402;2023-03-01T09:38:50;34.77;;;20.57;;
15958;SDS011;8078;47.822;9.402;2023-03-01T09:44:32;38.83;;;20.03;;
15958;SDS011;8078;47.822;9.402;2023-03-01T09:46:50;39.03;;;21.70;;
15958;SDS011;8078;47.822;9.402;2023-03-01T09:49:24;38.97;;;20.73;;
15958;SDS011;8078;47.822;9.402;2023-03-01T09:52:00;39.70;;;21.30;;
15958;SDS011;8078;47.822;9.402;2023-03-01T09:54:46;37.37;;;19.90;;
15958;SDS011;8078;47.822;9.402;2023-03-01T09:57:33;38.20;;;20.37;;
15958;SDS011;8078;47.822;9.402;2023-03-01T10:05:59;40.27;;;21.07;;
15958;SDS011;8078;47.822;9.402;2023-03-01T10:08:42;36.87;;;21.40;;
15958;SDS011;8078;47.822;9.402;2023-03-01T10:11:20;36.93;;;20.20;;
15958;SDS011;8078;47.822;9.402;2023-03-01T10:13:58;34.70;;;19.67;;
15958;SDS011;8078;47.822;9.402;2023-03-01T10:16:37;36.57;;;19.80;;
15958;SDS011;8078;47.822;9.402;2023-03-01T10:19:04;37.97;;;20.80;;
15958;SDS011;8078;47.822;9.402;2023-03-01T10:21:39;37.43;;;20.03;;
15958;SDS011;8078;47.822;9.402;2023-03-01T10:24:13;40.40;;;21.47;;
15958;SDS011;8078;47.822;9.402;2023-03-01T10:29:19;38.30;;;19.73;;
15958;SDS011;8078;47.822;9.402;2023-03-01T10:31:56;36.10;;;20.13;;
15958;SDS011;8078;47.822;9.402;2023-03-01T10:34:30;39.37;;;20.70;;
15958;SDS011;8078;47.822;9.402;2023-03-01T10:37:08;39.60;;;21.20;;
15958;SDS011;8078;47.822;9.402;2023-03-01T10:39:58;40.70;;;19.87;;
15958;SDS011;8078;47.822;9.402;2023-03-01T10:42:52;41.63;;;19.97;;
15958;SDS011;8078;47.822;9.402;2023-03-01T10:48:44;40.50;;;20.13;;
15958;SDS011;8078;47.822;9.402;2023-03-01T10:53:34;35.13;;;19.60;;
15958;SDS011;8078;47.822;9.402;2023-03-01T10:56:10;40.70;;;19.90;;
15958;SDS011;8078;47.822;9.402;2023-03-01T10:58:39;38.37;;;19.97;;
15958;SDS011;8078;47.822;9.402;2023-03-01T11:01:23;35.27;;;19.67;;
15958;SDS011;8078;47.822;9.402;2023-03-01T11:06:34;35.10;;;19.27;;
15958;SDS011;8078;47.822;9.402;2023-03-01T11:11:40;37.77;;;20.60;;
15958;SDS011;8078;47.822;9.402;2023-03-01T11:16:33;40.27;;;20.07;;
15958;SDS011;8078;47.822;9.402;2023-03-01T11:21:36;38.97;;;19.10;;
15958;SDS011;8078;47.822;9.402;2023-03-01T11:24:03;37.77;;;20.27;;
15958;SDS011;8078;47.822;9.402;2023-03-01T11:26:34;36.43;;;19.97;;
15958;SDS011;8078;47.822;9.402;2023-03-01T11:29:06;38.57;;;19.47;;
15958;SDS011;8078;47.822;9.402;2023-03-01T11:31:39;35.30;;;19.80;;
15958;SDS011;8078;47.822;9.402;2023-03-01T11:34:09;36.47;;;20.00;;
15958;SDS011;8078;47.822;9.402;2023-03-01T11:36:44;36.07;;;19.83;;
15958;SDS011;8078;47.822;9.402;2023-03-01T11:41:56;35.37;;;20.10;;
15958;SDS011;8078;47.822;9.402;2023-03-01T11:44:31;35.87;;;19.93;;
15958;SDS011;8078;47.822;9.402;2023-03-01T11:47:05;35.50;;;19.37;;
15958;SDS011;8078;47.822;9.402;2023-03-01T12:06:29;31.50;;;18.67;;
15958;SDS011;8078;47.822;9.402;2023-03-01T12:12:13;32.77;;;18.37;;
15958;SDS011;8078;47.822;9.402;2023-03-01T12:23:46;32.17;;;18.30;;
15958;SDS011;8078;47.822;9.402;2023-03-01T12:26:24;36.00;;;18.87;;
15958;SDS011;8078;47.822;9.402;2023-03-01T12:43:05;32.20;;;18.43;;
15958;SDS011;8078;47.822;9.402;2023-03-01T12:51:04;33.70;;;18.77;;
15958;SDS011;8078;47.822;9.402;2023-03-01T12:53:36;34.47;;;18.97;;
15958;SDS011;8078;47.822;9.402;2023-03-01T12:56:12;33.93;;;19.20;;
15958;SDS011;8078;47.822;9.402;2023-03-01T12:58:46;35.63;;;19.93;;
15958;SDS011;8078;47.822;9.402;2023-03-01T13:07:14;32.27;;;18.53;;
15958;SDS011;8078;47.822;9.402;2023-03-01T13:15:30;37.90;;;20.13;;
15958;SDS011;8078;47.822;9.402;2023-03-01T13:23:09;34.17;;;19.17;;
15958;SDS011;8078;47.822;9.402;2023-03-01T13:33:59;37.00;;;19.53;;
15958;SDS011;8078;47.822;9.402;2023-03-01T13:41:55;36.17;;;19.27;;
15958;SDS011;8078;47.822;9.402;2023-03-01T13:46:48;34.33;;;19.97;;
15958;SDS011;8078;47.822;9.402;2023-03-01T13:49:17;36.17;;;20.30;;
15958;SDS011;8078;47.822;9.402;2023-03-01T13:51:48;33.27;;;19.67;;
15958;SDS011;8078;47.822;9.402;2023-03-01T13:54:15;37.30;;;19.77;;
15958;SDS011;8078;47.822;9.402;2023-03-01T13:56:44;35.70;;;19.23;;
15958;SDS011;8078;47.822;9.402;2023-03-01T13:59:13;36.13;;;20.07;;
15958;SDS011;8078;47.822;9.402;2023-03-01T14:01:43;35.03;;;19.83;;
15958;SDS011;8078;47.822;9.402;2023-03-01T14:04:21;35.67;;;19.97;;
15958;SDS011;8078;47.822;9.402;2023-03-01T14:06:48;39.77;;;20.20;;
15958;SDS011;8078;47.822;9.402;2023-03-01T14:11:58;36.33;;;19.70;;
15958;SDS011;8078;47.822;9.402;2023-03-01T14:19:55;36.80;;;20.70;;
15958;SDS011;8078;47.822;9.402;2023-03-01T14:22:29;37.63;;;19.23;;
15958;SDS011;8078;47.822;9.402;2023-03-01T14:25:02;39.03;;;19.90;;
15958;SDS011;8078;47.822;9.402;2023-03-01T14:27:42;33.13;;;18.93;;
15958;SDS011;8078;47.822;9.402;2023-03-01T14:32:48;35.33;;;19.13;;
15958;SDS011;8078;47.822;9.402;2023-03-01T14:35:31;36.23;;;19.93;;
15958;SDS011;8078;47.822;9.402;2023-03-01T14:37:59;33.70;;;19.83;;
15958;SDS011;8078;47.822;9.402;2023-03-01T14:40:27;34.83;;;19.27;;
15958;SDS011;8078;47.822;9.402;2023-03-01T14:42:55;33.40;;;19.33;;
15958;SDS011;8078;47.822;9.402;2023-03-01T14:45:24;32.77;;;18.77;;
15958;SDS011;8078;47.822;9.402;2023-03-01T14:47:51;33.33;;;18.83;;
15958;SDS011;8078;47.822;9.402;2023-03-01T14:52:52;30.80;;;17.83;;
15958;SDS011;8078;47.822;9.402;2023-03-01T14:55:30;32.03;;;19.00;;
15958;SDS011;8078;47.822;9.402;2023-03-01T14:58:02;33.13;;;18.67;;
15958;SDS011;8078;47.822;9.402;2023-03-01T15:00:30;32.87;;;18.73;;
15958;SDS011;8078;47.822;9.402;2023-03-01T15:03:00;32.40;;;18.43;;
15958;SDS011;8078;47.822;9.402;2023-03-01T15:05:38;30.07;;;18.53;;
15958;SDS011;8078;47.822;9.402;2023-03-01T15:08:05;31.87;;;18.80;;
15958;SDS011;8078;47.822;9.402;2023-03-01T15:10:33;30.80;;;18.63;;
15958;SDS011;8078;47.822;9.402;2023-03-01T15:13:13;31.37;;;18.67;;
15958;SDS011;8078;47.822;9.402;2023-03-01T15:15:46;35.57;;;19.50;;
15958;SDS011;8078;47.822;9.402;2023-03-01T15:18:14;34.10;;;19.60;;
15958;SDS011;8078;47.822;9.402;2023-03-01T15:20:46;35.47;;;19.47;;
15958;SDS011;8078;47.822;9.402;2023-03-01T15:23:20;33.77;;;19.53;;
15958;SDS011;8078;47.822;9.402;2023-03-01T15:25:54;34.77;;;21.17;;
15958;SDS011;8078;47.822;9.402;2023-03-01T15:28:28;37.47;;;20.53;;
15958;SDS011;8078;47.822;9.402;2023-03-01T15:33:40;35.67;;;19.53;;
15958;SDS011;8078;47.822;9.402;2023-03-01T15:38:59;35.23;;;20.50;;
15958;SDS011;8078;47.822;9.402;2023-03-01T15:41:29;38.83;;;21.20;;
15958;SDS011;8078;47.822;9.402;2023-03-01T15:44:00;38.50;;;20.27;;
15958;SDS011;8078;47.822;9.402;2023-03-01T15:46:39;39.33;;;20.33;;
15958;SDS011;8078;47.822;9.402;2023-03-01T15:49:05;37.90;;;21.07;;
15958;SDS011;8078;47.822;9.402;2023-03-01T15:52:03;36.33;;;19.97;;
15958;SDS011;8078;47.822;9.402;2023-03-01T15:54:30;40.87;;;21.03;;
15958;SDS011;8078;47.822;9.402;2023-03-01T15:56:56;37.47;;;19.90;;
15958;SDS011;8078;47.822;9.402;2023-03-01T15:59:21;36.30;;;20.20;;
15958;SDS011;8078;47.822;9.402;2023-03-01T16:01:47;38.27;;;19.83;;
15958;SDS011;8078;47.822;9.402;2023-03-01T16:04:14;34.07;;;19.57;;
15958;SDS011;8078;47.822;9.402;2023-03-01T16:06:49;35.13;;;19.87;;
15958;SDS011;8078;47.822;9.402;2023-03-01T16:09:19;32.17;;;19.13;;
15958;SDS011;8078;47.822;9.402;2023-03-01T16:11:50;40.17;;;20.50;;
15958;SDS011;8078;47.822;9.402;2023-03-01T16:14:17;34.13;;;20.27;;
15958;SDS011;8078;47.822;9.402;2023-03-01T16:16:43;30.40;;;18.60;;
15958;SDS011;8078;47.822;9.402;2023-03-01T16:19:09;33.40;;;19.70;;
15958;SDS011;8078;47.822;9.402;2023-03-01T16:21:35;32.43;;;18.60;;
15958;SDS011;8078;47.822;9.402;2023-03-01T16:24:01;32.77;;;18.97;;
15958;SDS011;8078;47.822;9.402;2023-03-01T16:26:27;32.37;;;19.60;;
15958;SDS011;8078;47.822;9.402;2023-03-01T16:28:56;31.77;;;18.93;;
15958;SDS011;8078;47.822;9.402;2023-03-01T16:31:23;34.37;;;20.30;;
15958;SDS011;8078;47.822;9.402;2023-03-01T16:33:52;34.03;;;19.30;;
15958;SDS011;8078;47.822;9.402;2023-03-01T16:36:19;32.73;;;19.43;;
15958;SDS011;8078;47.822;9.402;2023-03-01T16:38:48;34.13;;;19.20;;
15958;SDS011;8078;47.822;9.402;2023-03-01T16:41:15;38.30;;;20.30;;
15958;SDS011;8078;47.822;9.402;2023-03-01T16:43:42;35.53;;;19.73;;
15958;SDS011;8078;47.822;9.402;2023-03-01T16:46:11;38.70;;;21.60;;
15958;SDS011;8078;47.822;9.402;2023-03-01T16:48:43;36.60;;;20.50;;
15958;SDS011;8078;47.822;9.402;2023-03-01T16:51:09;38.57;;;20.37;;
15958;SDS011;8078;47.822;9.402;2023-03-01T16:53:35;41.90;;;21.60;;
15958;SDS011;8078;47.822;9.402;2023-03-01T16:56:01;37.77;;;20.47;;
15958;SDS011;8078;47.822;9.402;2023-03-01T16:58:28;42.27;;;21.97;;
15958;SDS011;8078;47.822;9.402;2023-03-01T17:00:54;39.50;;;20.53;;